Time;durP1;ratioP1;P1;durP2;ratioP2;P2;SDS_P1;SDS_P2;PMS_P1;PMS_P2;Temp;Humidity;BMP_temperature;BMP_pressure;BME280_temperature;BME280_humidity;BME280_pressure;Samples;Min_cycle;Max_cycle;Signal;HPM_P1;HPM_P2
2022/04/19 00:01:50;;;;;;;3.63;3.03;;;;;;;9.13;70.02;101037.72;5091668;28;20036;-82
2022/04/19 00:04:18;;;;;;;;;;;;;;;9.31;69.93;101072.78;5093439;28;20028;-82
2022/04/19 00:06:44;;;;;;;3.65;3.00;;;;;;;9.15;69.85;101042.22;5091972;28;19916;-82
2022/04/19 00:09:10;;;;;;;5.50;3.00;;;;;;;9.32;69.91;101071.06;5108969;28;20154;-82
2022/04/19 00:11:36;;;;;;;3.90;2.85;;;;;;;9.14;70.06;101035.22;5110766;28;20130;-83
2022/04/19 00:14:01;;;;;;;;;;;;;;;9.29;69.96;101060.44;5097660;28;20039;-82
2022/04/19 00:16:27;;;;;;;3.33;2.80;;;;;;;9.01;69.87;101014.38;5103109;28;19916;-82
2022/04/19 00:18:54;;;;;;;3.92;3.03;;;;;;;8.94;69.83;101000.06;5091506;28;20107;-83
2022/04/19 00:21:20;;;;;;;5.03;3.30;;;;;;;9.00;70.17;101020.41;5091437;28;20043;-83
2022/04/19 00:23:46;;;;;;;4.50;3.28;;;;;;;9.21;69.99;101046.00;5103380;28;20040;-83
2022/04/19 00:26:12;;;;;;;4.22;3.00;;;;;;;9.17;69.91;101043.22;5091476;28;20165;-82
2022/04/19 00:28:38;;;;;;;3.45;3.03;;;;;;;9.28;69.82;101066.47;5090434;28;20167;-82
2022/04/19 00:31:06;;;;;;;3.70;2.85;;;;;;;9.27;70.09;101054.22;5090488;28;20609;-83
2022/04/19 00:33:32;;;;;;;3.58;2.92;;;;;;;9.24;70.00;101054.03;5100327;28;20031;-82
2022/04/19 00:35:57;;;;;;;;;;;;;;;9.28;69.73;101051.72;5090774;28;20024;-85
2022/04/19 00:38:23;;;;;;;4.22;3.20;;;;;;;9.22;69.91;101045.22;5101380;28;19926;-84
2022/04/19 00:40:49;;;;;;;3.47;2.90;;;;;;;8.96;69.81;101008.88;5112024;28;20486;-81
2022/04/19 00:43:18;;;;;;;3.33;2.78;;;;;;;9.04;69.91;100998.03;5104122;28;20107;-83
2022/04/19 00:45:43;;;;;;;3.92;2.85;;;;;;;9.14;69.98;101023.88;5090238;28;20038;-83
2022/04/19 00:48:10;;;;;;;4.03;2.80;;;;;;;9.11;70.02;101021.09;5073379;28;20123;-83
2022/04/19 00:50:36;;;;;;;3.38;2.78;;;;;;;9.20;70.28;101041.63;5091498;28;20089;-83
2022/04/19 00:53:03;;;;;;;4.20;3.20;;;;;;;9.01;69.75;101003.06;5092219;28;20036;-83
2022/04/19 00:55:31;;;;;;;4.25;2.80;;;;;;;8.75;69.79;100961.53;5109735;28;20054;-82
2022/04/19 00:57:57;;;;;;;4.43;2.40;;;;;;;9.18;69.92;101033.69;5105857;28;20027;-82
2022/04/19 01:00:24;;;;;;;3.80;2.90;;;;;;;9.17;69.94;101038.00;5101590;28;20462;-83
2022/04/19 01:02:50;;;;;;;3.65;2.75;;;;;;;8.75;69.71;100958.03;5109633;28;20111;-84
2022/04/19 01:05:16;;;;;;;4.30;3.15;;;;;;;9.22;69.92;101053.94;5092434;28;20123;-83
2022/04/19 01:07:42;;;;;;;;;;;;;;;9.24;69.82;101052.31;5091493;28;20490;-83
2022/04/19 01:10:08;;;;;;;2.85;2.55;;;;;;;9.26;70.02;101055.03;5091208;28;19933;-83
2022/04/19 01:15:18;;;;;;;3.40;2.83;;;;;;;9.14;69.69;101036.91;5105795;28;20688;-83
2022/04/19 01:17:45;;;;;;;3.45;2.80;;;;;;;9.09;70.11;101027.91;5115465;28;20020;-83
2022/04/19 01:20:14;;;;;;;3.78;2.83;;;;;;;9.23;69.98;101063.56;5108660;28;20024;-83
2022/04/19 01:22:41;;;;;;;3.47;2.72;;;;;;;9.23;69.76;101063.56;5076815;28;20429;-83
2022/04/19 01:25:08;;;;;;;3.10;2.80;;;;;;;9.23;69.75;101062.66;5093647;28;20528;-83
2022/04/19 01:27:34;;;;;;;4.78;2.83;;;;;;;9.10;69.77;101048.84;5076886;28;20028;-83
2022/04/19 01:30:03;;;;;;;4.35;2.95;;;;;;;9.03;69.83;101036.22;5093574;28;20084;-82
2022/04/19 01:32:32;;;;;;;3.53;2.58;;;;;;;9.15;69.83;101059.56;5076752;28;20040;-83
2022/04/19 01:35:17;;;;;;;3.53;2.78;;;;;;;9.22;69.95;101082.59;5093788;28;20028;-83
2022/04/19 01:37:45;;;;;;;2.85;2.25;;;;;;;9.10;69.83;101061.88;5076216;28;20081;-83
2022/04/19 01:40:17;;;;;;;3.55;2.80;;;;;;;9.22;69.92;101090.41;5093352;28;20028;-83
2022/04/19 01:42:46;;;;;;;3.35;2.50;;;;;;;9.24;69.81;101091.41;5095209;28;20480;-83
2022/04/19 01:45:16;;;;;;;3.45;2.70;;;;;;;9.22;69.84;101093.00;5094652;28;20042;-83
2022/04/19 01:47:43;;;;;;;3.33;2.95;;;;;;;9.14;69.69;101075.97;5093555;28;20413;-83
2022/04/19 01:50:09;;;;;;;;;;;;;;;9.20;69.92;101099.84;5094790;28;20492;-83
2022/04/19 01:52:39;;;;;;;3.40;2.53;;;;;;;9.08;69.82;101068.69;5094643;28;20367;-84
2022/04/19 01:55:06;;;;;;;3.65;2.80;;;;;;;9.02;69.63;101051.78;5076196;28;20332;-86
2022/04/19 01:57:32;;;;;;;5.15;3.03;;;;;;;9.19;70.02;101095.44;5093412;28;20401;-85
2022/04/19 01:59:57;;;;;;;3.67;2.65;;;;;;;8.71;69.91;101015.91;5093149;28;20020;-85
2022/04/19 02:02:23;;;;;;;3.35;2.70;;;;;;;8.73;70.09;101030.81;5093150;28;20032;-85
2022/04/19 02:04:50;;;;;;;4.13;2.72;;;;;;;8.92;69.92;101068.50;5094343;28;20024;-84
2022/04/19 02:07:16;;;;;;;4.03;2.70;;;;;;;9.12;69.93;101095.81;5093180;28;20024;-84
2022/04/19 02:09:42;;;;;;;3.15;2.47;;;;;;;8.71;69.78;101024.63;5093231;28;20524;-84
2022/04/19 02:12:08;;;;;;;2.75;2.50;;;;;;;8.83;69.80;101042.75;5095473;28;20035;-84
2022/04/19 02:14:34;;;;;;;2.53;2.33;;;;;;;8.93;70.02;101060.78;5113324;28;20032;-84
2022/04/19 02:17:00;;;;;;;2.65;2.30;;;;;;;8.88;69.92;101067.38;5113939;28;20035;-84
2022/04/19 02:19:25;;;;;;;3.53;2.58;;;;;;;8.81;70.02;101051.28;5096268;28;20102;-84
2022/04/19 02:21:51;;;;;;;2.90;2.50;;;;;;;9.19;69.95;101118.88;5095477;28;20101;-84
2022/04/19 02:24:16;;;;;;;2.23;2.03;;;;;;;9.14;69.88;101112.47;5101456;28;20082;-84
2022/04/19 02:26:42;;;;;;;3.30;2.67;;;;;;;9.13;69.83;101105.47;5106092;28;20024;-84
2022/04/19 02:29:08;;;;;;;2.97;2.42;;;;;;;8.81;70.02;101052.16;5095229;28;20032;-84
2022/04/19 02:31:33;;;;;;;3.78;2.72;;;;;;;9.15;69.73;101103.84;5092617;28;20509;-83
2022/04/19 02:33:59;;;;;;;3.75;2.80;;;;;;;9.10;70.19;101103.56;5093541;28;20075;-85
2022/04/19 02:36:25;;;;;;;2.85;2.08;;;;;;;8.71;70.09;101029.81;5092413;28;20474;-84
2022/04/19 02:38:51;;;;;;;3.22;2.67;;;;;;;8.90;70.19;101062.28;5108652;28;20071;-84
2022/04/19 02:41:19;;;;;;;3.10;2.30;;;;;;;8.76;70.03;101036.25;5113848;28;20066;-85
2022/04/19 02:43:45;;;;;;;2.70;2.50;;;;;;;9.09;69.86;101087.81;5100815;28;20032;-85
2022/04/19 02:46:11;;;;;;;2.83;2.50;;;;;;;8.93;69.96;101067.69;5093638;28;20509;-84
2022/04/19 02:48:36;;;;;;;3.00;2.28;;;;;;;8.92;69.66;101068.50;5105525;28;20032;-85
2022/04/19 02:51:02;;;;;;;3.38;2.40;;;;;;;8.83;70.02;101055.78;5113356;28;20085;-85
2022/04/19 02:53:28;;;;;;;2.35;2.10;;;;;;;9.05;70.04;101093.63;5108574;28;20138;-85
2022/04/19 02:55:54;;;;;;;2.85;2.40;;;;;;;8.80;70.11;101059.88;5093265;28;20024;-85
2022/04/19 02:58:20;;;;;;;2.75;2.33;;;;;;;8.79;69.75;101058.09;5101660;28;20125;-85
2022/04/19 03:00:46;;;;;;;3.20;2.63;;;;;;;8.81;69.87;101059.97;5104411;28;20126;-85
2022/04/19 03:03:12;;;;;;;2.72;2.20;;;;;;;9.06;69.42;101098.94;5093633;28;20040;-83
2022/04/19 03:05:40;;;;;;;3.50;2.58;;;;;;;8.86;69.81;101058.56;5111419;28;20032;-85
2022/04/19 03:08:11;;;;;;;3.20;2.63;;;;;;;9.12;69.57;101112.38;5111517;28;20450;-84
2022/04/19 03:11:12;;;;;;;2.90;2.47;;;;;;;8.56;69.81;101018.41;5094023;28;20537;-84
2022/04/19 03:13:37;;;;;;;3.00;2.30;;;;;;;8.88;69.74;101072.59;5106534;28;20028;-83
2022/04/19 03:16:04;;;;;;;2.65;2.33;;;;;;;9.10;70.11;101120.88;5111861;28;20038;-85
2022/04/19 03:18:32;;;;;;;3.10;2.40;;;;;;;8.98;70.00;101100.16;5107969;28;20062;-83
2022/04/19 03:20:58;;;;;;;3.10;2.10;;;;;;;8.94;70.02;101092.94;5099121;28;20023;-85
2022/04/19 03:28:54;;;;;;;3.35;2.47;;;;;;;9.11;69.96;101134.00;5071317;28;20031;-85
2022/04/19 03:31:22;;;;;;;2.28;2.08;;;;;;;9.12;70.25;101130.63;5091638;28;20039;-85
2022/04/19 03:33:52;;;;;;;2.58;2.20;;;;;;;9.07;69.99;101124.19;5103350;28;20111;-84
2022/04/19 03:36:21;;;;;;;2.95;2.35;;;;;;;9.00;69.62;101121.09;5092945;28;20065;-83
2022/04/19 03:38:47;;;;;;;3.17;2.30;;;;;;;9.09;69.86;101143.44;5111078;28;20103;-85
2022/04/19 03:41:13;;;;;;;2.95;2.47;;;;;;;9.10;69.88;101139.09;5098310;28;20114;-84
2022/04/19 03:43:39;;;;;;;2.83;2.53;;;;;;;9.12;69.71;101137.50;5110977;28;20039;-83
2022/04/19 03:46:05;;;;;;;2.67;2.40;;;;;;;9.06;70.08;101135.44;5087782;28;20033;-82
2022/04/19 03:48:32;;;;;;;2.90;2.25;;;;;;;8.99;69.93;101122.78;5085756;28;20085;-84
2022/04/19 03:50:58;;;;;;;3.33;2.58;;;;;;;9.05;69.91;101127.50;5084089;28;20522;-84
2022/04/19 03:53:24;;;;;;;3.30;2.53;;;;;;;9.00;69.94;101119.38;5109015;28;20027;-84
2022/04/19 03:55:49;;;;;;;4.53;2.15;;;;;;;8.80;70.07;101089.41;5109487;28;20054;-82
2022/04/19 03:58:15;;;;;;;2.75;2.42;;;;;;;8.98;69.92;101134.00;5110468;28;20031;-83
2022/04/19 04:00:41;;;;;;;3.60;2.38;;;;;;;8.69;69.93;101085.19;5109153;28;20038;-84
2022/04/19 04:03:06;;;;;;;3.38;2.60;;;;;;;8.91;69.95;101122.28;5087943;28;20024;-84
2022/04/19 04:05:35;;;;;;;3.67;2.38;;;;;;;8.80;69.93;101109.34;5077969;28;20062;-84
2022/04/19 04:08:18;;;;;;;4.35;2.58;;;;;;;8.64;70.12;101081.41;5102665;28;20102;-84
2022/04/19 04:10:46;;;;;;;3.72;2.65;;;;;;;8.92;69.86;101126.69;5095097;28;20427;-84
2022/04/19 04:13:12;;;;;;;2.70;2.30;;;;;;;8.91;70.01;101117.09;5106469;28;20488;-84
2022/04/19 04:15:38;;;;;;;3.17;2.58;;;;;;;8.42;70.09;101037.41;5091179;28;20047;-84
2022/04/19 04:18:04;;;;;;;3.92;2.70;;;;;;;9.06;70.17;101148.44;5091142;28;20036;-83
2022/04/19 04:20:30;;;;;;;4.00;2.67;;;;;;;9.06;69.92;101147.53;5090521;28;20397;-85
2022/04/19 04:22:55;;;;;;;3.45;2.67;;;;;;;9.01;70.17;101144.63;5091532;28;20123;-84
2022/04/19 04:25:21;;;;;;;4.60;3.03;;;;;;;8.90;70.05;101123.06;5091493;28;20052;-84
2022/04/19 04:27:47;;;;;;;4.63;3.22;;;;;;;9.02;69.90;101135.13;5091539;28;20405;-85
2022/04/19 04:30:12;;;;;;;4.73;3.03;;;;;;;8.53;70.07;101060.75;5090488;28;20047;-83
2022/04/19 04:32:38;;;;;;;4.77;3.13;;;;;;;8.76;70.03;101100.41;5090516;28;20709;-85
2022/04/19 04:35:05;;;;;;;4.13;2.97;;;;;;;8.72;69.87;101095.81;5090370;28;20265;-85
2022/04/19 04:37:30;;;;;;;4.63;2.97;;;;;;;8.85;70.04;101116.69;5073304;28;20558;-83
2022/04/19 04:39:56;;;;;;;4.95;3.00;;;;;;;8.73;69.89;101101.13;5090395;28;20024;-84
2022/04/19 04:42:21;;;;;;;4.57;3.15;;;;;;;8.86;70.01;101114.97;5088391;28;20158;-84
2022/04/19 04:44:47;;;;;;;3.92;2.95;;;;;;;9.02;69.86;101146.44;5080487;28;20031;-83
2022/04/19 04:49:58;;;;;;;4.72;2.92;;;;;;;9.01;70.04;101151.53;5090514;28;20083;-83
2022/04/19 04:52:24;;;;;;;5.13;3.40;;;;;;;9.09;70.05;101159.06;5089376;28;20031;-85
2022/04/19 04:54:49;;;;;;;4.00;2.95;;;;;;;9.00;69.84;101147.16;5070672;28;20115;-85
2022/04/19 04:59:34;;;;;;;5.85;3.80;;;;;;;9.23;69.32;101161.66;5124907;27;20388;-86
2022/04/19 05:02:00;;;;;;;7.55;3.42;;;;;;;9.21;69.02;101165.88;5109341;28;20043;-83
2022/04/19 05:04:27;;;;;;;5.85;3.55;;;;;;;9.17;69.49;101163.06;5108307;28;20160;-84
2022/04/19 05:06:53;;;;;;;8.55;3.63;;;;;;;9.18;69.32;101163.97;5107948;28;20054;-86
2022/04/19 05:09:19;;;;;;;7.28;3.63;;;;;;;9.19;69.15;101168.41;5108844;28;20493;-86
2022/04/19 05:11:50;;;;;;;6.25;3.50;;;;;;;9.15;69.09;101159.47;5109077;28;20042;-85
2022/04/19 05:14:16;;;;;;;5.95;3.47;;;;;;;9.20;69.38;101172.78;5107726;28;20034;-85
2022/04/19 05:16:42;;;;;;;6.13;3.50;;;;;;;9.19;69.44;101173.59;5108012;28;20052;-86
2022/04/19 05:19:08;;;;;;;7.90;3.75;;;;;;;9.19;69.43;101165.78;5109035;28;20027;-85
2022/04/19 05:21:37;;;;;;;6.55;3.60;;;;;;;9.11;69.10;101151.34;5107943;28;20037;-84
2022/04/19 05:24:09;;;;;;;4.85;3.58;;;;;;;9.14;69.09;101156.75;5107791;28;20554;-83
2022/04/19 05:26:35;;;;;;;4.88;3.50;;;;;;;9.20;69.47;101171.91;5107685;28;20036;-84
2022/04/19 05:29:01;;;;;;;5.30;3.65;;;;;;;9.16;69.14;101157.75;5107383;28;20085;-87
2022/04/19 05:31:27;;;;;;;6.10;3.40;;;;;;;9.15;69.02;101158.56;5107606;28;20028;-87
2022/04/19 05:33:53;;;;;;;5.75;3.45;;;;;;;8.85;69.67;101113.19;5108834;28;20084;-88
2022/04/19 05:36:18;;;;;;;5.47;3.38;;;;;;;9.13;69.53;101162.78;5107772;28;20035;-88
2022/04/19 05:38:44;;;;;;;6.53;3.70;;;;;;;8.91;69.35;101126.56;5090642;28;20465;-87
2022/04/19 05:41:11;;;;;;;5.25;3.28;;;;;;;8.86;69.36;101123.66;5107597;28;20530;-88
2022/04/19 05:43:37;;;;;;;6.82;3.60;;;;;;;8.73;69.30;101101.13;5090287;28;20024;-88
2022/04/19 05:46:03;;;;;;;6.25;3.72;;;;;;;9.17;69.42;101183.91;5107688;28;20128;-88
2022/04/19 05:48:29;;;;;;;5.75;3.67;;;;;;;9.18;69.33;101184.81;5106577;28;20522;-88
2022/04/19 05:50:54;;;;;;;5.47;3.10;;;;;;;8.84;69.42;101114.84;5107971;28;20035;-88
2022/04/19 05:53:20;;;;;;;4.93;3.53;;;;;;;8.98;69.80;101147.03;5107156;28;20718;-88
2022/04/19 05:55:46;;;;;;;5.25;3.25;;;;;;;8.86;69.47;101125.38;5108558;28;20040;-87
2022/04/19 05:58:13;;;;;;;6.90;3.40;;;;;;;8.95;69.52;101139.00;5089519;28;20052;-87
2022/04/19 06:00:43;;;;;;;5.05;3.40;;;;;;;9.21;69.48;101174.63;5090621;28;20035;-91
2022/04/19 06:06:00;;;;;;;5.28;3.20;;;;;;;9.15;69.28;101175.09;5108023;28;20505;-91
2022/04/19 06:08:32;;;;;;;5.55;3.33;;;;;;;9.16;69.32;101189.03;5090533;28;20039;-90
2022/04/19 06:11:12;;;;;;;5.40;3.15;;;;;;;9.12;69.31;101174.91;5076782;28;20530;-91
2022/04/19 06:13:49;;;;;;;4.35;3.00;;;;;;;9.21;69.39;101189.31;5077350;28;20088;-91
2022/04/19 06:16:33;;;;;;;6.22;3.75;;;;;;;9.10;69.10;101167.78;5077223;28;20123;-91
2022/04/19 06:19:03;;;;;;;4.78;3.22;;;;;;;9.21;69.37;101187.63;5076698;28;20034;-90
2022/04/19 06:21:28;;;;;;;6.30;3.70;;;;;;;9.08;69.44;101169.38;5094119;28;20401;-91
2022/04/19 06:23:55;;;;;;;5.40;3.40;;;;;;;9.08;69.51;101164.16;5094070;28;20028;-91
2022/04/19 06:26:24;;;;;;;4.90;3.42;;;;;;;9.07;69.60;101164.97;5076892;28;20028;-91
2022/04/19 06:28:50;;;;;;;5.03;3.20;;;;;;;9.07;69.12;101159.78;5093390;28;20107;-90
2022/04/19 06:31:16;;;;;;;4.82;3.10;;;;;;;8.80;69.06;101119.75;5076651;28;20486;-90
2022/04/19 06:33:45;;;;;;;4.80;3.25;;;;;;;8.87;69.12;101134.97;5076423;28;20062;-90
2022/04/19 06:36:10;;;;;;;5.88;3.60;;;;;;;9.00;69.42;101168.00;5076628;28;20020;-90
2022/04/19 06:38:44;;;;;;;7.93;3.65;;;;;;;9.10;69.26;101191.22;5076305;28;20032;-90
2022/04/19 06:41:21;;;;;;;5.22;3.25;;;;;;;9.08;69.63;101172.91;5093045;28;20028;-91
2022/04/19 06:43:47;;;;;;;4.97;3.15;;;;;;;9.07;69.57;101183.22;5093251;28;20028;-90
2022/04/19 06:46:15;;;;;;;4.35;3.00;;;;;;;9.13;69.43;101196.66;5092902;28;20047;-90
2022/04/19 06:48:45;;;;;;;4.32;3.15;;;;;;;9.09;69.35;101189.44;5076419;28;20150;-91
2022/04/19 06:51:12;;;;;;;5.00;3.20;;;;;;;9.21;69.40;101208.50;5075953;28;20085;-90
2022/04/19 06:53:42;;;;;;;5.35;3.53;;;;;;;9.06;69.43;101178.78;5092336;28;20031;-89
2022/04/19 06:56:10;;;;;;;4.72;3.20;;;;;;;8.96;69.51;101167.75;5092538;28;20028;-89
2022/04/19 06:58:35;;;;;;;5.00;3.42;;;;;;;9.22;69.38;101206.78;5075606;28;20056;-90
2022/04/19 07:01:01;;;;;;;4.57;3.13;;;;;;;8.73;69.44;101129.75;5075697;28;20024;-90
2022/04/19 07:03:28;;;;;;;4.82;3.10;;;;;;;9.15;69.43;101203.75;5075713;28;20028;-90
2022/04/19 07:05:53;;;;;;;4.30;3.30;;;;;;;9.24;69.29;101213.00;5093992;28;20054;-89
2022/04/19 07:08:22;;;;;;;4.80;3.35;;;;;;;9.11;69.58;101193.03;5075660;28;20039;-90
2022/04/19 07:10:47;;;;;;;5.07;3.08;;;;;;;9.22;69.44;101212.88;5075507;28;20035;-89
2022/04/19 07:13:13;;;;;;;4.50;3.35;;;;;;;9.23;69.33;101217.31;5092479;28;20103;-89
2022/04/19 07:15:39;;;;;;;4.90;3.30;;;;;;;9.05;69.48;101187.41;5092004;28;20028;-89
2022/04/19 07:18:08;;;;;;;4.90;3.15;;;;;;;9.05;69.60;101196.13;5075186;28;20059;-89
2022/04/19 07:28:47;;;;;;;4.95;2.97;;;;;;;9.11;69.58;101201.75;5092260;28;20122;-90
2022/04/19 07:31:22;;;;;;;4.95;3.17;;;;;;;8.91;69.55;101176.06;5092044;28;20052;-90
2022/04/19 07:33:53;;;;;;;4.40;3.20;;;;;;;9.20;69.35;101218.81;5075090;28;20493;-89
2022/04/19 07:36:19;;;;;;;4.40;3.10;;;;;;;9.19;69.67;101223.13;5074676;28;20020;-89
2022/04/19 07:38:57;;;;;;;4.93;3.05;;;;;;;9.14;69.59;101207.19;5092870;28;20032;-90
2022/04/19 07:41:24;;;;;;;3.97;2.97;;;;;;;9.05;69.52;101192.63;5075378;28;20035;-91
2022/04/19 07:43:51;;;;;;;4.28;3.13;;;;;;;9.17;69.08;101220.41;5093753;28;20033;-90
2022/04/19 07:46:19;;;;;;;4.35;3.10;;;;;;;8.92;69.40;101181.38;5077958;28;20051;-91
2022/04/19 07:49:08;;;;;;;4.75;2.97;;;;;;;9.24;69.59;101224.31;5075675;28;20055;-90
2022/04/19 07:51:37;;;;;;;4.53;3.15;;;;;;;8.94;69.37;101174.56;5075480;28;20024;-90
2022/04/19 07:54:22;;;;;;;3.78;2.78;;;;;;;9.23;69.56;101225.13;5092224;28;20028;-90
2022/04/19 07:56:51;;;;;;;4.28;3.10;;;;;;;9.00;69.67;101181.00;5075070;28;20028;-90
2022/04/19 07:59:16;;;;;;;4.97;3.35;;;;;;;8.96;69.40;101172.97;5090560;28;20082;-89
2022/04/19 08:01:42;;;;;;;3.72;2.65;;;;;;;9.24;69.56;101224.31;5091142;28;20055;-88
2022/04/19 08:04:08;;;;;;;3.73;2.93;;;;;;;8.93;69.51;101171.84;5090730;28;20034;-89
2022/04/19 08:06:34;;;;;;;4.60;2.78;;;;;;;9.10;69.25;101199.97;5091031;28;20501;-89
2022/04/19 08:09:00;;;;;;;4.32;3.13;;;;;;;8.76;69.64;101153.41;5073773;28;20024;-89
2022/04/19 08:11:27;;;;;;;3.85;2.90;;;;;;;8.91;69.74;101174.38;5090734;28;20417;-89
2022/04/19 08:13:53;;;;;;;3.80;2.70;;;;;;;9.09;69.50;101213.78;5090572;28;20099;-88
2022/04/19 08:16:19;;;;;;;4.40;3.05;;;;;;;9.02;69.68;101205.47;5090535;28;20032;-89
2022/04/19 08:18:44;;;;;;;3.70;3.03;;;;;;;8.92;69.50;101189.19;5073769;28;20036;-88
2022/04/19 08:21:12;;;;;;;3.85;2.90;;;;;;;8.69;69.44;101151.19;5073465;28;20028;-88
2022/04/19 08:23:37;;;;;;;5.28;3.30;;;;;;;9.15;69.31;101236.75;5090762;28;20028;-88
2022/04/19 08:26:03;;;;;;;4.50;3.08;;;;;;;9.04;69.30;101207.38;5084802;28;20050;-88
2022/04/19 08:28:28;;;;;;;4.05;3.05;;;;;;;8.96;69.71;101192.91;5053781;28;20521;-88
2022/04/19 08:30:54;;;;;;;3.97;3.07;;;;;;;8.79;69.54;101163.13;5070843;28;20123;-88
2022/04/19 08:33:21;;;;;;;4.10;2.92;;;;;;;8.96;69.38;101195.53;5085399;28;20024;-89
2022/04/19 08:35:46;;;;;;;4.43;2.80;;;;;;;8.85;69.70;101178.28;5090868;28;20028;-88
2022/04/19 08:38:12;;;;;;;4.82;2.78;;;;;;;9.22;69.77;101235.44;5090415;28;20077;-88
2022/04/19 08:40:37;;;;;;;5.28;3.08;;;;;;;8.66;69.59;101145.78;5090600;28;20054;-88
2022/04/19 08:43:03;;;;;;;3.35;2.83;;;;;;;8.88;69.42;101178.47;5073712;28;20024;-89
2022/04/19 08:45:30;;;;;;;4.55;3.03;;;;;;;9.12;69.69;101221.81;5090145;28;20157;-88
2022/04/19 08:47:58;;;;;;;4.45;2.75;;;;;;;9.03;69.63;101208.16;5090578;28;20024;-88
2022/04/19 08:50:24;;;;;;;4.07;3.00;;;;;;;8.91;69.37;101184.81;5090557;28;20028;-88
2022/04/19 08:57:29;;;;;;;3.65;2.88;;;;;;;9.00;69.30;101197.53;5090551;28;20031;-88
2022/04/19 08:58:22;;;;;;;5.05;2.90;;;;;;;9.26;69.60;101243.56;5090273;28;20543;-88
2022/04/19 09:00:48;;;;;;;4.45;3.00;;;;;;;9.00;69.38;101200.13;5090484;28;20055;-88
2022/04/19 09:03:15;;;;;;;4.93;2.80;;;;;;;9.13;69.81;101215.78;5090053;28;20520;-88
2022/04/19 09:05:51;;;;;;;3.72;2.72;;;;;;;9.07;69.63;101204.06;5073717;28;20634;-88
2022/04/19 09:08:19;;;;;;;4.72;2.88;;;;;;;9.17;69.55;101220.41;5089922;28;20023;-89
2022/04/19 09:10:45;;;;;;;3.75;3.05;;;;;;;9.00;69.46;101189.72;5073305;28;20790;-89
2022/04/19 09:13:21;;;;;;;3.08;2.40;;;;;;;8.99;69.70;101184.41;5073192;28;20560;-89
2022/04/19 09:15:48;;;;;;;4.28;2.80;;;;;;;9.03;69.32;101194.22;5090449;28;20039;-88
2022/04/19 09:18:29;;;;;;;3.75;2.72;;;;;;;9.28;69.50;101243.66;5089919;28;20028;-89
2022/04/19 09:20:57;;;;;;;3.92;2.60;;;;;;;9.26;69.66;101237.44;5089937;28;20040;-89
2022/04/19 09:23:25;;;;;;;3.40;2.72;;;;;;;9.28;69.62;101239.34;5073492;28;20508;-89
2022/04/19 09:26:01;;;;;;;4.43;2.92;;;;;;;9.16;69.59;101226.44;5073419;28;20619;-89
2022/04/19 09:28:28;;;;;;;3.28;2.70;;;;;;;9.29;69.65;101248.06;5091201;28;20032;-89
2022/04/19 09:30:59;;;;;;;4.47;2.90;;;;;;;8.96;69.48;101196.41;5090072;28;20024;-89
2022/04/19 09:33:26;;;;;;;4.43;3.10;;;;;;;9.01;69.67;101203.63;5072838;28;20024;-89
2022/04/19 09:35:58;;;;;;;4.88;2.70;;;;;;;9.28;69.63;101246.28;5073188;28;20016;-88
2022/04/19 09:38:46;;;;;;;3.85;3.08;;;;;;;9.23;69.53;101242.44;5073120;28;20504;-88
2022/04/19 09:41:30;;;;;;;4.53;3.00;;;;;;;9.27;69.85;101249.66;5089940;28;20071;-88
2022/04/19 09:44:09;;;;;;;3.00;2.70;;;;;;;9.29;69.56;101246.38;5072816;28;20032;-88
2022/04/19 09:46:36;;;;;;;3.50;2.70;;;;;;;9.14;69.44;101224.50;5093979;28;20085;-89
2022/04/19 09:49:02;;;;;;;3.72;2.63;;;;;;;9.07;69.66;101206.66;5076971;28;20554;-88
2022/04/19 09:51:32;;;;;;;2.80;2.50;;;;;;;9.29;69.84;101237.63;5076726;28;20119;-88
2022/04/19 09:53:58;;;;;;;4.53;2.90;;;;;;;9.30;69.76;101244.69;5076482;28;20036;-89
2022/04/19 09:56:33;;;;;;;4.07;2.70;;;;;;;9.13;69.34;101226.22;5093407;28;20099;-88
2022/04/19 09:59:02;;;;;;;3.63;2.60;;;;;;;9.17;69.53;101224.72;5093146;28;20131;-88
2022/04/19 10:09:34;;;;;;;3.60;2.67;;;;;;;9.12;69.68;101216.59;5093539;28;20031;-89
2022/04/19 10:12:07;;;;;;;3.90;2.80;;;;;;;9.33;69.66;101252.69;5093400;28;20123;-89
2022/04/19 10:14:34;;;;;;;4.40;2.90;;;;;;;9.13;69.80;101234.03;5075998;28;20089;-89
2022/04/19 10:17:04;;;;;;;3.17;2.65;;;;;;;9.22;69.73;101246.75;5092971;28;20396;-88
2022/04/19 10:19:30;;;;;;;4.72;3.25;;;;;;;9.15;69.55;101236.75;5092744;28;20035;-88
2022/04/19 10:21:59;;;;;;;3.58;2.97;;;;;;;9.23;69.68;101245.97;5092936;28;20020;-88
2022/04/19 10:24:27;;;;;;;4.15;3.00;;;;;;;9.32;69.76;101266.53;5092958;28;20081;-89
2022/04/19 10:26:55;;;;;;;4.28;2.92;;;;;;;9.10;69.75;101232.91;5094241;28;20394;-89
2022/04/19 10:29:30;;;;;;;3.78;2.63;;;;;;;9.35;69.79;101274.53;5093098;28;20038;-88
2022/04/19 10:32:01;;;;;;;4.05;2.70;;;;;;;9.29;69.90;101261.09;5075883;28;20028;-89
2022/04/19 10:34:33;;;;;;;4.05;2.83;;;;;;;9.12;69.70;101242.66;5093128;28;20028;-89
2022/04/19 10:37:19;;;;;;;4.65;3.15;;;;;;;9.33;69.74;101274.47;5076005;28;20032;-88
2022/04/19 10:39:53;;;;;;;4.78;3.20;;;;;;;9.13;69.69;101243.53;5092900;28;20046;-89
2022/04/19 10:42:29;;;;;;;5.60;3.03;;;;;;;9.34;69.57;101275.34;5092211;28;20039;-88
2022/04/19 10:44:55;;;;;;;4.80;3.20;;;;;;;9.29;69.69;101272.44;5093802;28;20148;-89
2022/04/19 10:47:23;;;;;;;4.97;3.03;;;;;;;9.21;69.90;101258.00;5094029;28;20115;-88
2022/04/19 10:50:04;;;;;;;5.10;3.20;;;;;;;9.35;69.71;101277.16;5075820;28;20077;-89
2022/04/19 10:52:38;;;;;;;4.05;2.65;;;;;;;9.31;69.67;101267.31;5075659;28;20031;-89
2022/04/19 10:55:04;;;;;;;5.07;3.20;;;;;;;9.22;69.73;101251.97;5093689;28;20111;-91
2022/04/19 11:00:56;;;;;;;5.72;3.15;;;;;;;9.41;69.63;101269.75;5088678;28;20497;-89
2022/04/19 11:03:48;;;;;;;5.20;2.80;;;;;;;9.36;69.77;101279.88;5092348;28;20043;-89
2022/04/19 11:06:31;;;;;;;4.50;2.88;;;;;;;9.37;69.59;101278.16;5092513;28;20032;-88
2022/04/19 11:09:27;;;;;;;5.22;3.08;;;;;;;9.36;69.80;101279.88;5092374;28;20032;-90
2022/04/19 11:12:08;;;;;;;3.72;2.85;;;;;;;9.23;69.63;101256.41;5092479;28;20039;-90
2022/04/19 11:14:44;;;;;;;4.07;2.88;;;;;;;9.37;69.75;101273.84;5075727;28;20032;-91
2022/04/19 11:17:21;;;;;;;4.70;3.00;;;;;;;9.35;69.72;101279.75;5075377;28;20024;-90
2022/04/19 11:20:09;;;;;;;4.68;2.90;;;;;;;9.35;69.59;101274.53;5075639;28;20039;-90
2022/04/19 11:22:51;;;;;;;3.90;2.92;;;;;;;9.21;69.72;101247.56;5092627;28;20040;-89
2022/04/19 11:25:42;;;;;;;5.25;3.30;;;;;;;9.29;69.77;101259.41;5075819;28;20493;-90
2022/04/19 11:28:12;;;;;;;4.40;2.85;;;;;;;9.38;69.54;101278.25;5075513;28;20055;-90
2022/04/19 11:30:58;;;;;;;4.55;2.95;;;;;;;9.34;69.78;101264.94;5091924;28;20448;-90
2022/04/19 11:33:36;;;;;;;4.88;3.30;;;;;;;9.17;69.86;101242.97;5084668;28;20107;-89
2022/04/19 11:36:18;;;;;;;3.70;2.67;;;;;;;9.31;69.74;101256.88;5071462;28;20025;-89
2022/04/19 11:38:49;;;;;;;4.60;2.97;;;;;;;9.22;69.69;101241.53;5090856;28;20040;-89
2022/04/19 11:46:48;;;;;;;4.78;3.13;;;;;;;9.38;69.57;101260.03;5087229;28;20039;-87
2022/04/19 11:49:20;;;;;;;5.47;3.33;;;;;;;9.41;69.79;101263.63;5091306;28;20032;-87
2022/04/19 11:51:46;;;;;;;3.50;2.70;;;;;;;9.34;69.95;101252.78;5091154;28;20028;-88
2022/04/19 11:54:33;;;;;;;3.38;2.70;;;;;;;9.41;69.60;101264.53;5071910;28;20071;-89
2022/04/19 11:57:06;;;;;;;4.60;3.17;;;;;;;9.28;69.93;101241.06;5096829;28;20041;-88
2022/04/19 11:59:54;;;;;;;3.78;2.78;;;;;;;9.27;69.61;101241.84;5089559;28;20505;-87
2022/04/19 12:02:22;;;;;;;4.57;3.10;;;;;;;9.29;69.71;101242.84;5085048;28;20036;-88
2022/04/19 12:04:53;;;;;;;5.47;3.08;;;;;;;9.21;69.90;101238.81;5074247;28;20028;-88
2022/04/19 12:07:20;;;;;;;4.47;2.75;;;;;;;9.30;69.50;101247.28;5090793;28;20024;-88
2022/04/19 12:09:51;;;;;;;4.85;3.35;;;;;;;9.45;69.74;101263.94;5074267;28;20034;-89
2022/04/19 12:12:16;;;;;;;3.30;2.65;;;;;;;8.93;69.72;101172.78;5090446;28;20036;-89
2022/04/19 12:14:48;;;;;;;4.63;3.20;;;;;;;9.34;69.79;101247.59;5088441;28;20085;-88
2022/04/19 12:17:19;;;;;;;4.38;2.90;;;;;;;9.26;69.40;101238.34;5089441;28;20100;-89
2022/04/19 12:19:45;;;;;;;4.90;3.20;;;;;;;9.16;69.72;101221.22;5070496;28;20024;-88
2022/04/19 12:22:18;;;;;;;5.70;3.05;;;;;;;9.24;69.51;101220.81;5077004;28;20024;-89
2022/04/19 12:24:45;;;;;;;4.72;3.17;;;;;;;9.23;69.47;101225.13;5091805;28;20041;-88
2022/04/19 12:27:12;;;;;;;4.15;3.40;;;;;;;9.22;69.75;101225.91;5090716;28;20028;-89